الصفحة الرئيسية
METAR-TAF:

METAR-TAF

مطار :

مطار مورتالا محمد الدولي

لاغوس, نيجيريا

دائرة عرض: 06-35N, خط طول: 003-20E, ارتفاع: 40 متر

مراقبة الطقس الحالي

تاريخ ووقت الإصدار 1ساعة و 1 دقيقة قبل الساعة 18:00UTC
ريح 5 عقدة من الجنوب
درجة الحرارة 27°درجة مئوية
الرطوبة 79%
ضغط 1015 hPa
الرؤية 10 كم أو أكثر
غيوم قليلة على ارتفاع 1100 قدم

METAR: DNMM 141800Z 18005KT 9999 FEW011 27/23 Q1015 NOSIG

زمن: 20:01 (19:01 UTC)

توقعات

تاريخ ووقت الإصدار 9ساعات و 11 دقيقة قبل الساعة 09:50UTC
التوقعات صالحة من14 الساعة 12 UTC إلى 15 الساعة 18 UTC
ريح 10 عقدة من الجنوب/الجنوب الغربي
الرؤية 10 كم أو أكثر
غيوم مفككة على ارتفاع 1300 قدم
غيوم قليلة على ارتفاع 2000 قدم, مزنة ركامية.
نظرية الاحتمالات 30% :
مؤقت
من 14 الساعة 14 UTC إلى 14 الساعة 18 UTC
الرؤية: 5000 متر
غيوم مفككة على ارتفاع 900 قدم
غيوم قليلة على ارتفاع 1900 قدم, مزنة ركامية.
مطر خفيف
أصبح
من 14 الساعة 18 UTC إلى 14 الساعة 20 UTC
ريح 2 عقدةمن اتجاهات متغيرة
غيوم قليلة على ارتفاع 900 قدم

TAF: DNMM 140950Z 1412/1518 20010KT 9999 BKN013 FEW020CB PROB30 TEMPO 1414/1418 5000 -RA BKN009 FEW019CB BECMG 1418/1420 VRB02KT FEW009

أرصاد الطقس والتوقعات من أكثر من 4000 مطار (تقارير الطقس للمطار METAR والتنبؤ بالطقس بالمطارTAF).

المحطات المتاحة هي النقط الصفراء والحمراء على الخريطة.

حرك المؤشر فوق النقطة لمعرفة اسم المحطة.

ثم انقر لمعرفة أرصاد وتوقعات الطقس.

لتغيير الخارطة: اضغط على الأزرار الخضراء مع رمز الصليب الأسود للتكبير. على الزر الأخضر مع شرطة للتصغير، أو على الأسهم الخضراء للخرائط المجاورة.


METAR-TAF: